createdAt,value
2018-04-26T00:00:20.721Z,15.6
2018-04-26T00:01:43.088Z,15.6
2018-04-26T00:03:05.475Z,15.5
2018-04-26T00:04:27.826Z,15.5
2018-04-26T00:05:50.177Z,15.6
2018-04-26T00:07:12.572Z,15.6
2018-04-26T00:08:32.423Z,15.6
2018-04-26T00:09:57.363Z,15.6
2018-04-26T00:11:19.754Z,15.5
2018-04-26T00:12:42.144Z,15.4
2018-04-26T00:14:01.983Z,15.6
2018-04-26T00:15:21.824Z,15.4
2018-04-26T00:16:41.722Z,15.5
2018-04-26T00:18:04.085Z,15.4
2018-04-26T00:19:23.922Z,15.5
2018-04-26T00:20:48.802Z,15.6
2018-04-26T00:22:08.667Z,15.5
2018-04-26T00:23:36.094Z,15.5
2018-04-26T00:24:55.916Z,15.5
2018-04-26T00:26:15.725Z,15.5
2018-04-26T00:27:35.537Z,15.6
2018-04-26T00:28:55.350Z,15.5
2018-04-26T00:30:15.169Z,15.4
2018-04-26T00:31:34.979Z,15.6
2018-04-26T00:32:54.790Z,15.5
2018-04-26T00:34:14.651Z,15.5
2018-04-26T00:35:34.466Z,15.5
2018-04-26T00:36:54.284Z,15.3
2018-04-26T00:38:14.129Z,15.4
2018-04-26T00:39:36.558Z,15.4
2018-04-26T00:41:01.514Z,15.4
2018-04-26T00:42:23.855Z,15.5
2018-04-26T00:43:46.223Z,15.5
2018-04-26T00:45:06.091Z,15.4
2018-04-26T00:46:25.907Z,15.4
2018-04-26T00:47:58.495Z,15.3
2018-04-26T00:49:18.338Z,15.3
2018-04-26T00:50:43.202Z,15.6
2018-04-26T00:52:03.035Z,15.6
2018-04-26T00:53:22.899Z,15.6
2018-04-26T00:54:42.734Z,15.6
2018-04-26T00:56:02.559Z,15.3
2018-04-26T00:57:24.931Z,15.5
2018-04-26T00:58:47.309Z,15.5
2018-04-26T01:00:19.769Z,15.2
2018-04-26T01:01:42.142Z,15.2
2018-04-26T01:03:04.501Z,15.3
2018-04-26T01:04:24.339Z,15.2
2018-04-26T01:05:44.198Z,15.6
2018-04-26T01:07:14.123Z,15.5
2018-04-26T01:08:33.983Z,15.3
2018-04-26T01:09:58.913Z,15.5
2018-04-26T01:11:28.846Z,15.5
2018-04-26T01:12:48.691Z,15.5
2018-04-26T01:14:08.499Z,15.5
2018-04-26T01:15:28.315Z,15.5
2018-04-26T01:16:48.211Z,15.5
2018-04-26T01:18:08.026Z,15.6
2018-04-26T01:19:48.111Z,15.5
2018-04-26T01:21:10.520Z,15.4
2018-04-26T01:22:30.342Z,15.4
2018-04-26T01:24:00.295Z,15.5
2018-04-26T01:25:22.668Z,15.5
2018-04-26T01:26:42.476Z,15.4
2018-04-26T01:28:02.280Z,15.4
2018-04-26T01:29:27.180Z,15.3
2018-04-26T01:30:57.149Z,15.5
2018-04-26T01:32:22.070Z,15.5
2018-04-26T01:33:41.909Z,15.3
2018-04-26T01:35:01.751Z,15.5
2018-04-26T01:36:24.156Z,15.3
2018-04-26T01:37:44.088Z,15.3
2018-04-26T01:39:06.493Z,15.4
2018-04-26T01:40:26.378Z,15.3
2018-04-26T01:41:48.769Z,15.3
2018-04-26T01:43:21.256Z,15.4
2018-04-26T01:44:41.095Z,15.4
2018-04-26T01:46:00.957Z,15.5
2018-04-26T01:47:20.823Z,15.6
2018-04-26T01:48:40.681Z,15.6
2018-04-26T01:50:00.519Z,15.6
2018-04-26T01:51:20.365Z,15.6
2018-04-26T01:52:47.769Z,15.5
2018-04-26T01:54:07.579Z,15.5
2018-04-26T01:55:29.922Z,15.5
2018-04-26T01:56:57.349Z,15.5
2018-04-26T01:58:17.181Z,15.4
2018-04-26T01:59:39.519Z,15.4
2018-04-26T02:01:04.400Z,15.2
2018-04-26T02:02:24.206Z,15.3
2018-04-26T02:03:46.580Z,15.4
2018-04-26T02:05:08.933Z,15.4
2018-04-26T02:06:28.786Z,15.5
2018-04-26T02:07:48.617Z,15.5
2018-04-26T02:09:08.473Z,15.6
2018-04-26T02:10:28.321Z,15.4
2018-04-26T02:11:50.661Z,15.5
2018-04-26T02:13:13.005Z,15.6
2018-04-26T02:14:35.395Z,15.4
2018-04-26T02:15:55.255Z,15.5
2018-04-26T02:17:15.097Z,15.6
2018-04-26T02:18:45.018Z,15.5
2018-04-26T02:20:07.398Z,15.4
2018-04-26T02:21:29.736Z,15.6
2018-04-26T02:22:49.589Z,15.2
2018-04-26T02:24:09.412Z,15.4
2018-04-26T02:25:29.228Z,15.4
2018-04-26T02:26:49.081Z,15.5
2018-04-26T02:28:11.467Z,15.4
2018-04-26T02:29:36.366Z,15.3
2018-04-26T02:31:01.290Z,15.4
2018-04-26T02:32:23.641Z,15.5
2018-04-26T02:33:43.479Z,15.4
2018-04-26T02:35:03.294Z,15.5
2018-04-26T02:36:23.111Z,15.5
2018-04-26T02:37:42.926Z,15.3
2018-04-26T02:39:02.759Z,15.4
2018-04-26T02:40:22.609Z,15.4
2018-04-26T02:41:42.467Z,15.4
2018-04-26T02:43:02.320Z,15.4
2018-04-26T02:44:22.144Z,15.5
2018-04-26T02:45:44.496Z,15.6
2018-04-26T02:47:06.854Z,15.4
2018-04-26T02:48:26.684Z,15.5
2018-04-26T02:49:46.529Z,15.5
2018-04-26T02:51:11.483Z,15.2
2018-04-26T02:52:36.392Z,15.4
2018-04-26T02:53:56.231Z,15.4
2018-04-26T02:55:16.088Z,15.4
2018-04-26T02:56:38.439Z,15.4
2018-04-26T02:58:00.838Z,15.5
2018-04-26T02:59:23.194Z,15.4
2018-04-26T03:00:50.603Z,15.4
2018-04-26T03:02:10.410Z,15.4
2018-04-26T03:03:30.217Z,15.5
2018-04-26T03:04:50.049Z,15.5
2018-04-26T03:06:09.915Z,15.4
2018-04-26T03:07:37.330Z,15.3
2018-04-26T03:08:59.705Z,15.2
2018-04-26T03:10:22.053Z,15.2
2018-04-26T03:11:41.909Z,15.3
2018-04-26T03:13:01.742Z,15.4
2018-04-26T03:14:21.577Z,15.3
2018-04-26T03:15:43.969Z,15.4
2018-04-26T03:17:11.409Z,15.4
2018-04-26T03:18:36.312Z,15.2
2018-04-26T03:19:56.147Z,15.2
2018-04-26T03:21:16.047Z,15.3
2018-04-26T03:22:38.428Z,15.3
2018-04-26T03:24:00.803Z,15.2
2018-04-26T03:25:20.795Z,15.3
2018-04-26T03:26:43.184Z,15.5
2018-04-26T03:28:08.074Z,15.4
2018-04-26T03:29:27.943Z,15.3
2018-04-26T03:30:47.780Z,15.4
2018-04-26T03:32:07.591Z,15.4
2018-04-26T03:33:27.459Z,15.4
2018-04-26T03:34:54.866Z,15.3
2018-04-26T03:36:14.671Z,15.3
2018-04-26T03:37:34.528Z,15.4
2018-04-26T03:38:56.873Z,15.3
2018-04-26T03:40:16.732Z,15.3
2018-04-26T03:41:36.604Z,15.3
2018-04-26T03:43:04.020Z,15.2
2018-04-26T03:44:23.833Z,15.3
2018-04-26T03:45:46.214Z,15.3
2018-04-26T03:47:06.088Z,15.4
2018-04-26T03:48:30.984Z,15.1
2018-04-26T03:49:50.896Z,15
2018-04-26T03:51:23.365Z,14.8
2018-04-26T03:52:48.294Z,15.1
2018-04-26T03:54:10.657Z,15
2018-04-26T03:55:30.490Z,15
2018-04-26T03:56:50.364Z,15
2018-04-26T03:58:12.711Z,15.2
2018-04-26T03:59:50.252Z,15.2
2018-04-26T04:01:10.103Z,15.2
2018-04-26T04:02:29.909Z,15.2
2018-04-26T04:03:49.756Z,14.9
2018-04-26T04:05:14.630Z,15
2018-04-26T04:06:34.446Z,15
2018-04-26T04:08:04.393Z,15
2018-04-26T04:09:24.240Z,14.9
2018-04-26T04:10:44.071Z,15.1
2018-04-26T04:12:03.914Z,14.9
2018-04-26T04:13:23.727Z,14.9
2018-04-26T04:14:43.536Z,15.2
2018-04-26T04:16:13.470Z,15.3
2018-04-26T04:17:35.857Z,15.4
2018-04-26T04:18:58.194Z,15
2018-04-26T04:20:20.555Z,15
2018-04-26T04:21:42.890Z,15
2018-04-26T04:23:02.715Z,14.8
2018-04-26T04:24:30.147Z,14.8
2018-04-26T04:25:49.974Z,14.9
2018-04-26T04:27:09.814Z,14.7
2018-04-26T04:28:32.224Z,14.9
2018-04-26T04:29:54.574Z,15
2018-04-26T04:31:14.388Z,14.8
2018-04-26T04:32:36.777Z,15.1
2018-04-26T04:33:56.590Z,15
2018-04-26T04:35:19.073Z,15
2018-04-26T04:36:38.914Z,14.8
2018-04-26T04:38:06.357Z,14.9
2018-04-26T04:39:28.754Z,14.9
2018-04-26T04:40:48.565Z,14.9
2018-04-26T04:42:08.380Z,14.9
2018-04-26T04:43:35.891Z,15
2018-04-26T04:44:58.237Z,14.9
2018-04-26T04:46:18.082Z,15
2018-04-26T04:47:40.498Z,14.9
2018-04-26T04:49:07.906Z,15.1
2018-04-26T04:50:32.774Z,14.9
2018-04-26T04:52:05.273Z,14.9
2018-04-26T04:53:25.118Z,15
2018-04-26T04:54:44.947Z,14.9
2018-04-26T04:56:04.806Z,14.9
2018-04-26T04:57:24.632Z,15.1
2018-04-26T04:58:46.972Z,15.2
2018-04-26T05:00:06.844Z,14.9
2018-04-26T05:01:29.190Z,15.2
2018-04-26T05:02:49.035Z,15.1
2018-04-26T05:04:13.912Z,15.1
2018-04-26T05:05:41.330Z,15
2018-04-26T05:07:01.188Z,15.2
2018-04-26T05:08:23.532Z,15
2018-04-26T05:09:43.354Z,15
2018-04-26T05:11:03.182Z,15
2018-04-26T05:12:23.002Z,14.9
2018-04-26T05:13:45.438Z,15
2018-04-26T05:15:07.867Z,15
2018-04-26T05:16:27.686Z,15.3
2018-04-26T05:17:47.597Z,15.3
2018-04-26T05:19:09.945Z,15.2
2018-04-26T05:20:32.294Z,15.3
2018-04-26T05:21:52.157Z,15
2018-04-26T05:23:12.029Z,14.8
2018-04-26T05:24:34.386Z,15
2018-04-26T05:26:01.795Z,14.9
2018-04-26T05:27:24.172Z,14.6
2018-04-26T05:28:49.081Z,14.8
2018-04-26T05:30:16.490Z,14.9
2018-04-26T05:31:46.448Z,15
2018-04-26T05:33:06.297Z,15
2018-04-26T05:34:26.134Z,15
2018-04-26T05:35:46.029Z,14.8
2018-04-26T05:37:10.937Z,15
2018-04-26T05:38:35.852Z,14.7
2018-04-26T05:40:00.746Z,15.1
2018-04-26T05:41:28.185Z,15.1
2018-04-26T05:42:48.004Z,15.3
2018-04-26T05:44:10.416Z,15.3
2018-04-26T05:45:30.259Z,15.4
2018-04-26T05:46:50.081Z,15.4
2018-04-26T05:48:12.505Z,15.4
2018-04-26T05:49:32.339Z,15.3
2018-04-26T05:50:52.154Z,15.2
2018-04-26T05:52:29.770Z,15.3
2018-04-26T05:53:57.196Z,15.3
2018-04-26T05:55:17.004Z,15.4
2018-04-26T05:56:36.813Z,15.4
2018-04-26T05:57:56.641Z,15.4
2018-04-26T05:59:16.455Z,15.2
2018-04-26T06:00:43.877Z,15.2
2018-04-26T06:02:08.776Z,15.2
2018-04-26T06:03:31.161Z,15.3
2018-04-26T06:04:51.047Z,15.3
2018-04-26T06:06:15.993Z,15
2018-04-26T06:07:38.365Z,15
2018-04-26T06:08:58.179Z,15.2
2018-04-26T06:10:17.992Z,15.2
2018-04-26T06:11:37.808Z,15.2
2018-04-26T06:12:57.619Z,15.2
2018-04-26T06:14:17.436Z,15.2
2018-04-26T06:15:39.804Z,15.3
2018-04-26T06:17:07.300Z,15.4
2018-04-26T06:18:27.136Z,15.4
2018-04-26T06:19:46.952Z,15.4
2018-04-26T06:21:14.399Z,15.4
2018-04-26T06:22:36.734Z,15.1
2018-04-26T06:23:56.542Z,15
2018-04-26T06:25:24.005Z,15
2018-04-26T06:26:46.395Z,15.1
2018-04-26T06:28:08.754Z,15.2
2018-04-26T06:29:33.658Z,15.3
2018-04-26T06:30:53.508Z,15.4
2018-04-26T06:32:13.370Z,15.2
2018-04-26T06:33:33.182Z,15.2
2018-04-26T06:34:53.023Z,15.1
2018-04-26T06:36:12.884Z,15.4
2018-04-26T06:37:32.702Z,15.5
2018-04-26T06:38:55.087Z,15.4
2018-04-26T06:40:14.919Z,15.2
2018-04-26T06:41:37.252Z,15.4
2018-04-26T06:42:59.624Z,15.3
2018-04-26T06:44:29.575Z,15.3
2018-04-26T06:45:51.964Z,15.3
2018-04-26T06:47:11.770Z,15.1
2018-04-26T06:48:46.794Z,15
2018-04-26T06:50:06.606Z,15
2018-04-26T06:51:31.491Z,15
2018-04-26T06:52:51.312Z,15
2018-04-26T06:54:11.116Z,15.2
2018-04-26T06:55:30.929Z,14.9
2018-04-26T06:56:50.816Z,14.9
2018-04-26T06:58:20.780Z,15
2018-04-26T06:59:43.170Z,14.8
2018-04-26T07:01:05.536Z,14.9
2018-04-26T07:02:25.380Z,15
2018-04-26T07:03:47.716Z,15.1
2018-04-26T07:05:07.524Z,15.3
2018-04-26T07:06:27.385Z,15.3
2018-04-26T07:07:52.258Z,15.1
2018-04-26T07:09:12.067Z,15.2
2018-04-26T07:10:31.897Z,15.2
2018-04-26T07:11:51.723Z,15.3
2018-04-26T07:13:14.074Z,15.3
2018-04-26T07:14:38.967Z,15.3
2018-04-26T07:16:01.359Z,15.2
2018-04-26T07:17:21.227Z,15.1
2018-04-26T07:18:43.612Z,15.2
2018-04-26T07:20:03.453Z,15.2
2018-04-26T07:21:23.268Z,15.3
2018-04-26T07:22:43.084Z,15.4
2018-04-26T07:24:05.485Z,15.2
2018-04-26T07:25:25.325Z,15.4
2018-04-26T07:26:47.680Z,15.3
2018-04-26T07:28:07.508Z,15.3
2018-04-26T07:29:27.315Z,15.4
2018-04-26T07:30:47.132Z,15.4
2018-04-26T07:32:06.950Z,15.6
2018-04-26T07:33:29.330Z,15.6
2018-04-26T07:34:54.261Z,15.6
2018-04-26T07:36:21.682Z,15.7
2018-04-26T07:37:41.494Z,15.7
2018-04-26T07:39:01.363Z,15.8
2018-04-26T07:40:21.191Z,15.7
2018-04-26T07:41:41.061Z,15.7
2018-04-26T07:43:03.402Z,15.8
2018-04-26T07:44:23.221Z,15.8
2018-04-26T07:45:43.035Z,15.6
2018-04-26T07:47:02.852Z,15.6
2018-04-26T07:48:27.736Z,15.7
2018-04-26T07:49:47.578Z,15.7
2018-04-26T07:51:09.943Z,15.6
2018-04-26T07:52:42.466Z,15.6
2018-04-26T07:54:02.273Z,15.7
2018-04-26T07:55:24.626Z,15.9
2018-04-26T07:56:57.098Z,15.7
2018-04-26T07:58:24.505Z,15.7
2018-04-26T07:59:44.383Z,15.7
2018-04-26T08:01:06.783Z,15.7
2018-04-26T08:02:39.255Z,15.5
2018-04-26T08:03:59.071Z,15.5
2018-04-26T08:05:18.889Z,15.8
2018-04-26T08:06:38.710Z,15.8
2018-04-26T08:07:58.518Z,15.5
2018-04-26T08:09:23.381Z,16
2018-04-26T08:10:43.241Z,15.5
2018-04-26T08:12:03.105Z,15.9
2018-04-26T08:13:35.576Z,15.7
2018-04-26T08:14:55.454Z,15.8
2018-04-26T08:16:20.348Z,16.2
2018-04-26T08:17:40.217Z,16
2018-04-26T08:19:00.072Z,16
2018-04-26T08:20:19.904Z,15.6
2018-04-26T08:21:44.832Z,16
2018-04-26T08:23:04.684Z,15.8
2018-04-26T08:24:27.046Z,16
2018-04-26T08:26:02.103Z,15.6
2018-04-26T08:27:21.956Z,16
2018-04-26T08:28:44.287Z,16.2
2018-04-26T08:30:19.321Z,15.8
2018-04-26T08:31:44.261Z,15.8
2018-04-26T08:33:04.125Z,16.2
2018-04-26T08:34:23.937Z,16
2018-04-26T08:35:43.749Z,15.9
2018-04-26T08:37:03.565Z,16
2018-04-26T08:38:23.369Z,16
2018-04-26T08:39:50.828Z,15.5
2018-04-26T08:41:13.168Z,15.4
2018-04-26T08:42:38.044Z,15.6
2018-04-26T08:43:57.856Z,16
2018-04-26T08:45:20.222Z,16
2018-04-26T08:46:45.159Z,15.9
2018-04-26T08:48:05.050Z,16.1
2018-04-26T08:49:24.926Z,16.1
2018-04-26T08:50:47.327Z,16.2
2018-04-26T08:52:09.697Z,16.1
2018-04-26T08:53:32.084Z,16
2018-04-26T08:55:07.092Z,15.8
2018-04-26T08:56:29.517Z,16.1
2018-04-26T08:57:49.364Z,16.1
2018-04-26T08:59:14.242Z,16
2018-04-26T09:00:34.095Z,16.1
2018-04-26T09:01:56.435Z,16.1
2018-04-26T09:03:18.810Z,16.1
2018-04-26T09:04:48.753Z,16.1
2018-04-26T09:06:13.734Z,16.2
2018-04-26T09:07:33.547Z,16.3
2018-04-26T09:08:53.357Z,16.3
2018-04-26T09:10:15.698Z,16.1
2018-04-26T09:11:40.565Z,15.9
2018-04-26T09:13:08.043Z,16.2
2018-04-26T09:14:32.956Z,16.3
2018-04-26T09:15:52.858Z,16.2
2018-04-26T09:17:12.722Z,16.1
2018-04-26T09:18:35.123Z,16.1
2018-04-26T09:19:54.984Z,16.2
2018-04-26T09:21:17.335Z,16.1
2018-04-26T09:22:39.717Z,16
2018-04-26T09:23:59.579Z,15.9
2018-04-26T09:25:19.431Z,15.9
2018-04-26T09:26:41.794Z,16.1
2018-04-26T09:28:04.137Z,16.2
2018-04-26T09:29:24.015Z,16.3
2018-04-26T09:30:43.879Z,16.1
2018-04-26T09:32:08.758Z,16.1
2018-04-26T09:33:28.625Z,16.1
2018-04-26T09:34:48.479Z,16.2
2018-04-26T09:36:08.295Z,16.3
2018-04-26T09:37:28.111Z,16.2
2018-04-26T09:38:48.020Z,16.1
2018-04-26T09:40:10.449Z,16
2018-04-26T09:41:30.317Z,16
2018-04-26T09:42:50.171Z,15.8
2018-04-26T09:44:10.032Z,15.7
2018-04-26T09:45:29.888Z,15.8
2018-04-26T09:46:49.725Z,15.9
2018-04-26T09:48:12.084Z,15.9
2018-04-26T09:49:31.896Z,15.9
2018-04-26T09:50:51.707Z,15.9
2018-04-26T09:52:11.522Z,15.9
2018-04-26T09:53:33.879Z,15.9
2018-04-26T09:54:56.215Z,15.7
2018-04-26T09:56:16.027Z,15.8
2018-04-26T09:57:35.873Z,15.9
2018-04-26T09:58:58.232Z,16
2018-04-26T10:00:18.045Z,15.8
2018-04-26T10:01:37.863Z,15.9
2018-04-26T10:03:02.758Z,16
2018-04-26T10:04:25.093Z,16
2018-04-26T10:05:44.945Z,16.1
2018-04-26T10:07:07.286Z,15.9
2018-04-26T10:08:32.153Z,15.8
2018-04-26T10:09:54.527Z,15.9
2018-04-26T10:11:19.421Z,15.8
2018-04-26T10:12:44.364Z,15.8
2018-04-26T10:14:04.194Z,15.6
2018-04-26T10:15:24.013Z,15.9
2018-04-26T10:16:43.843Z,15.8
2018-04-26T10:18:08.774Z,15.7
2018-04-26T10:19:31.170Z,15.7
2018-04-26T10:20:50.989Z,15.6
2018-04-26T10:22:10.807Z,15.5
2018-04-26T10:23:30.672Z,15.6
2018-04-26T10:25:03.151Z,15.6
2018-04-26T10:26:23.021Z,15.5
2018-04-26T10:27:45.371Z,15.7
2018-04-26T10:29:17.896Z,15.8
2018-04-26T10:30:37.704Z,15.8
2018-04-26T10:31:57.517Z,15.5
2018-04-26T10:33:17.351Z,15.2
2018-04-26T10:34:37.190Z,15.3
2018-04-26T10:36:04.622Z,15.4
2018-04-26T10:37:24.507Z,15.6
2018-04-26T10:38:51.901Z,15.8
2018-04-26T10:40:14.280Z,15.9
2018-04-26T10:41:36.627Z,15.8
2018-04-26T10:43:04.067Z,15.9
2018-04-26T10:44:26.517Z,15.8
2018-04-26T10:45:56.511Z,15.8
2018-04-26T10:47:23.978Z,15.7
2018-04-26T10:48:46.353Z,15.5
2018-04-26T10:50:11.247Z,14.3
2018-04-26T10:51:33.618Z,15.7
2018-04-26T10:52:58.591Z,15.5
2018-04-26T10:54:20.940Z,15.5
2018-04-26T10:55:50.893Z,15.6
2018-04-26T10:57:15.799Z,15.8
2018-04-26T10:58:35.610Z,15.6
2018-04-26T10:59:55.435Z,15.5
2018-04-26T11:01:15.282Z,15.5
2018-04-26T11:02:37.635Z,15.6
2018-04-26T11:03:59.974Z,15.6
2018-04-26T11:05:22.319Z,15.5
2018-04-26T11:06:42.136Z,15.7
2018-04-26T11:08:01.998Z,15.5
2018-04-26T11:09:24.367Z,15.7
2018-04-26T11:10:44.231Z,15.7
2018-04-26T11:12:09.177Z,15.7
2018-04-26T11:13:31.535Z,15.6
2018-04-26T11:14:51.350Z,15.7
2018-04-26T11:16:18.828Z,15.8
2018-04-26T11:17:41.215Z,16
2018-04-26T11:19:06.083Z,16
2018-04-26T11:20:28.467Z,15.9
2018-04-26T11:21:48.342Z,15.9
2018-04-26T11:23:08.181Z,16
2018-04-26T11:24:30.541Z,15.9
2018-04-26T11:25:55.499Z,15.9
2018-04-26T11:27:15.304Z,15.7
2018-04-26T11:28:35.111Z,15.6
2018-04-26T11:29:54.921Z,15.7
2018-04-26T11:31:19.785Z,15.4
2018-04-26T11:32:39.624Z,15.6
2018-04-26T11:33:59.461Z,15.7
2018-04-26T11:35:19.323Z,15.6
2018-04-26T11:36:39.161Z,15.7
2018-04-26T11:37:59.060Z,15.8
2018-04-26T11:39:21.398Z,15.7
2018-04-26T11:40:46.260Z,15.6
2018-04-26T11:42:06.076Z,15.7
2018-04-26T11:43:36.018Z,15.7
2018-04-26T11:44:55.831Z,15.7
2018-04-26T11:46:20.705Z,15.9
2018-04-26T11:47:40.552Z,16
2018-04-26T11:49:00.411Z,16
2018-04-26T11:50:22.746Z,16
2018-04-26T11:51:42.608Z,16
2018-04-26T11:53:02.474Z,16
2018-04-26T11:54:22.315Z,15.9
2018-04-26T11:55:42.139Z,15.8
2018-04-26T11:57:01.947Z,15.8
2018-04-26T11:58:21.770Z,15.8
2018-04-26T11:59:49.220Z,15.6
2018-04-26T12:01:09.076Z,15.6
2018-04-26T12:02:28.928Z,15.4
2018-04-26T12:03:51.292Z,15.2
2018-04-26T12:05:11.113Z,15.3
2018-04-26T12:06:30.931Z,15.3
2018-04-26T12:08:05.927Z,15
2018-04-26T12:09:25.742Z,15
2018-04-26T12:10:45.553Z,15
2018-04-26T12:12:05.392Z,15.2
2018-04-26T12:13:27.767Z,15.3
2018-04-26T12:14:52.657Z,14.4
2018-04-26T12:16:12.483Z,14.6
2018-04-26T12:17:42.438Z,15.5
2018-04-26T12:19:02.298Z,15.4
2018-04-26T12:20:24.644Z,15.1
2018-04-26T12:21:46.981Z,16.3
2018-04-26T12:23:11.882Z,16.6
2018-04-26T12:24:31.717Z,17.7
2018-04-26T12:25:56.582Z,18.4
2018-04-26T12:27:16.423Z,18
2018-04-26T12:28:38.790Z,18.2
2018-04-26T12:29:58.652Z,19.5
2018-04-26T12:31:23.563Z,20
2018-04-26T12:32:45.975Z,19.9
2018-04-26T12:34:05.836Z,19.3
2018-04-26T12:35:30.719Z,19.2
2018-04-26T12:36:53.085Z,19.3
2018-04-26T12:38:18.005Z,19.2
2018-04-26T12:39:40.404Z,18.7
2018-04-26T12:41:00.213Z,19.1
2018-04-26T12:42:20.130Z,19.1
2018-04-26T12:43:42.487Z,18.7
2018-04-26T12:45:02.351Z,18.4
2018-04-26T12:46:22.178Z,18
2018-04-26T12:47:42.041Z,18.2
2018-04-26T12:49:04.396Z,18.3
2018-04-26T12:50:24.279Z,18.4
2018-04-26T12:51:46.662Z,18.3
2018-04-26T12:53:06.493Z,18.3
2018-04-26T12:54:26.304Z,18.3
2018-04-26T12:55:48.700Z,18.5
2018-04-26T12:57:08.541Z,18.7
2018-04-26T12:58:28.373Z,19
2018-04-26T12:59:50.712Z,19
2018-04-26T13:01:13.065Z,19
2018-04-26T13:02:35.461Z,19.1
2018-04-26T13:03:55.285Z,18.9
2018-04-26T13:05:22.700Z,19
2018-04-26T13:06:47.616Z,19
2018-04-26T13:08:15.024Z,19
2018-04-26T13:09:34.832Z,19
2018-04-26T13:10:54.648Z,19
2018-04-26T13:12:14.455Z,19
2018-04-26T13:13:34.281Z,19
2018-04-26T13:14:56.626Z,19
2018-04-26T13:16:16.466Z,19
2018-04-26T13:17:36.275Z,18.9
2018-04-26T13:18:56.128Z,19
2018-04-26T13:20:15.963Z,19
2018-04-26T13:21:38.388Z,19
2018-04-26T13:22:58.210Z,19
2018-04-26T13:24:18.049Z,19
2018-04-26T13:25:40.445Z,19
2018-04-26T13:27:02.802Z,19
2018-04-26T13:28:22.618Z,19
2018-04-26T13:29:42.426Z,19
2018-04-26T13:31:02.271Z,18.9
2018-04-26T13:32:22.082Z,18.9
2018-04-26T13:33:41.929Z,18.9
2018-04-26T13:35:09.326Z,19.1
2018-04-26T13:36:29.168Z,19.2
2018-04-26T13:37:59.163Z,19.2
2018-04-26T13:39:21.502Z,19.3
2018-04-26T13:40:41.362Z,19.2
2018-04-26T13:42:01.174Z,19.2
2018-04-26T13:43:26.083Z,19.1
2018-04-26T13:44:45.918Z,19.1
2018-04-26T13:46:05.782Z,19.2
2018-04-26T13:47:25.676Z,19.3
2018-04-26T13:48:48.034Z,19.4
2018-04-26T13:50:12.952Z,19.1
2018-04-26T13:51:32.818Z,18.8
2018-04-26T13:53:00.208Z,18.6
2018-04-26T13:54:20.023Z,18.5
2018-04-26T13:55:49.952Z,18.3
2018-04-26T13:57:12.340Z,18.2
2018-04-26T13:58:37.247Z,18.2
2018-04-26T14:00:02.172Z,18.1
2018-04-26T14:01:22.033Z,18
2018-04-26T14:02:57.063Z,18
2018-04-26T14:04:26.986Z,18.1
2018-04-26T14:05:49.344Z,18.1
2018-04-26T14:07:09.165Z,18.1
2018-04-26T14:08:29.010Z,18.4
2018-04-26T14:09:48.903Z,18.8
2018-04-26T14:11:11.269Z,19
2018-04-26T14:12:33.643Z,19.1
2018-04-26T14:13:53.496Z,19.1
2018-04-26T14:15:13.327Z,19.2
2018-04-26T14:16:33.198Z,19.2
2018-04-26T14:17:55.540Z,19.3
2018-04-26T14:19:15.366Z,19.2
2018-04-26T14:20:35.187Z,19.2
2018-04-26T14:21:57.550Z,19.3
2018-04-26T14:23:19.939Z,19.4
2018-04-26T14:24:52.537Z,19.5
2018-04-26T14:26:14.874Z,19.5
2018-04-26T14:27:37.251Z,19.5
2018-04-26T14:28:57.101Z,19.4
2018-04-26T14:30:16.921Z,19.4
2018-04-26T14:31:41.791Z,19.5
2018-04-26T14:33:01.609Z,19.6
2018-04-26T14:34:21.413Z,19.6
2018-04-26T14:35:41.262Z,19.5
2018-04-26T14:37:01.114Z,19.8
2018-04-26T14:38:20.932Z,19.7
2018-04-26T14:39:45.815Z,19.6
2018-04-26T14:41:05.644Z,19.7
2018-04-26T14:42:30.561Z,19.5
2018-04-26T14:43:52.939Z,19.4
2018-04-26T14:45:15.282Z,19.4
2018-04-26T14:46:40.143Z,19.2
2018-04-26T14:48:02.488Z,19.2
2018-04-26T14:49:22.304Z,19.1
2018-04-26T14:50:42.168Z,19
2018-04-26T14:52:04.536Z,19
2018-04-26T14:53:24.365Z,19
2018-04-26T14:54:49.277Z,19
2018-04-26T14:56:09.097Z,18.9
2018-04-26T14:57:31.448Z,18.9
2018-04-26T14:58:51.260Z,18.9
2018-04-26T15:00:11.072Z,18.8
2018-04-26T15:01:30.884Z,18.8
2018-04-26T15:02:50.738Z,18.7
2018-04-26T15:04:20.672Z,18.7
2018-04-26T15:05:43.049Z,18.7
2018-04-26T15:07:13.023Z,18.7
2018-04-26T15:08:32.859Z,18.7
2018-04-26T15:09:55.223Z,18.6
2018-04-26T15:11:17.564Z,18.6
2018-04-26T15:12:37.374Z,18.5
2018-04-26T15:14:02.251Z,18.6
2018-04-26T15:15:27.171Z,18.5
2018-04-26T15:16:49.597Z,18.5
2018-04-26T15:18:09.459Z,18.5
2018-04-26T15:19:29.276Z,18.5
2018-04-26T15:20:49.098Z,18.5
2018-04-26T15:22:08.928Z,18.4
2018-04-26T15:23:28.757Z,18.4
2018-04-26T15:24:51.103Z,18.4
2018-04-26T15:26:10.922Z,18.4
2018-04-26T15:27:30.774Z,18.3
2018-04-26T15:28:50.636Z,18.4
2018-04-26T15:30:10.448Z,18.3
2018-04-26T15:31:30.258Z,18.3
2018-04-26T15:32:50.147Z,18.3
2018-04-26T15:34:10.007Z,18.3
2018-04-26T15:35:29.839Z,18.3
2018-04-26T15:36:49.673Z,18.2
2018-04-26T15:38:09.489Z,18.1
2018-04-26T15:39:29.342Z,18.1
2018-04-26T15:40:51.677Z,18.1
2018-04-26T15:42:11.486Z,18.1
2018-04-26T15:43:41.411Z,18.1
2018-04-26T15:45:01.217Z,18
2018-04-26T15:46:21.074Z,17.9
2018-04-26T15:47:40.899Z,17.9
2018-04-26T15:49:00.736Z,17.8
2018-04-26T15:50:20.550Z,17.7
2018-04-26T15:51:40.422Z,17.7
2018-04-26T15:53:00.259Z,17.8
2018-04-26T15:54:20.075Z,17.8
2018-04-26T15:55:44.957Z,17.7
2018-04-26T15:57:04.785Z,17.6
2018-04-26T15:58:27.136Z,17.6
2018-04-26T15:59:46.948Z,17.6
2018-04-26T16:01:06.761Z,17.5
2018-04-26T16:02:29.114Z,17.4
2018-04-26T16:03:56.565Z,17.4
2018-04-26T16:05:21.477Z,17.4
2018-04-26T16:06:41.284Z,17.3
2018-04-26T16:08:06.152Z,17.3
2018-04-26T16:09:26.019Z,17.3
2018-04-26T16:10:48.447Z,17.2
2018-04-26T16:12:26.034Z,17.3
2018-04-26T16:13:48.403Z,17.3
2018-04-26T16:15:08.250Z,17.3
2018-04-26T16:16:30.583Z,17.2
2018-04-26T16:17:50.442Z,17.1
2018-04-26T16:19:10.255Z,17.2
2018-04-26T16:20:30.070Z,17.2
2018-04-26T16:22:05.062Z,17.1
2018-04-26T16:23:24.876Z,17
2018-04-26T16:24:47.324Z,17.1
2018-04-26T16:26:07.185Z,17
2018-04-26T16:27:26.993Z,17
2018-04-26T16:28:51.897Z,16.9
2018-04-26T16:30:11.718Z,16.9
2018-04-26T16:31:46.746Z,17
2018-04-26T16:33:06.554Z,17
2018-04-26T16:34:26.364Z,17
2018-04-26T16:35:46.232Z,17
2018-04-26T16:37:08.593Z,17
2018-04-26T16:38:33.548Z,16.9
2018-04-26T16:39:53.412Z,17
2018-04-26T16:41:15.755Z,17
2018-04-26T16:42:35.598Z,16.9
2018-04-26T16:43:57.966Z,16.9
2018-04-26T16:45:17.810Z,16.8
2018-04-26T16:46:40.197Z,16.8
2018-04-26T16:48:05.068Z,16.8
2018-04-26T16:49:27.479Z,16.8
2018-04-26T16:50:47.331Z,16.9
2018-04-26T16:52:07.189Z,16.8
2018-04-26T16:53:26.998Z,16.8
2018-04-26T16:54:46.813Z,16.8
2018-04-26T16:56:09.209Z,16.8
2018-04-26T16:57:29.070Z,16.8
2018-04-26T16:58:48.885Z,16.8
2018-04-26T17:00:08.723Z,16.7
2018-04-26T17:01:28.540Z,16.7
2018-04-26T17:02:50.901Z,16.7
2018-04-26T17:04:15.845Z,16.6
2018-04-26T17:05:35.698Z,16.6
2018-04-26T17:06:58.059Z,16.5
2018-04-26T17:08:17.933Z,16.6
2018-04-26T17:09:40.283Z,16.6
2018-04-26T17:11:02.650Z,16.5
2018-04-26T17:12:24.997Z,16.5
2018-04-26T17:13:47.375Z,16.4
2018-04-26T17:15:07.188Z,16.4
2018-04-26T17:16:27.060Z,16.4
2018-04-26T17:17:54.501Z,16.5
2018-04-26T17:19:24.448Z,16.5
2018-04-26T17:20:49.322Z,16.5
2018-04-26T17:22:09.138Z,16.4
2018-04-26T17:23:31.530Z,16.4
2018-04-26T17:24:51.343Z,16.4
2018-04-26T17:26:16.225Z,16.3
2018-04-26T17:27:38.560Z,16.4
2018-04-26T17:28:58.373Z,16.4
2018-04-26T17:30:18.240Z,16.4
2018-04-26T17:31:43.148Z,16.4
2018-04-26T17:33:15.611Z,16.3
2018-04-26T17:34:35.426Z,16.4
2018-04-26T17:35:55.264Z,16.3
2018-04-26T17:37:15.106Z,16.4
2018-04-26T17:38:34.923Z,16.4
2018-04-26T17:40:04.921Z,16.4
2018-04-26T17:41:24.741Z,16.3
2018-04-26T17:42:44.571Z,16.3
2018-04-26T17:44:04.380Z,16.3
2018-04-26T17:45:29.257Z,16.3
2018-04-26T17:46:49.072Z,16.3
2018-04-26T17:48:08.885Z,16.3
2018-04-26T17:49:28.709Z,16.2
2018-04-26T17:50:48.520Z,16.2
2018-04-26T17:52:08.342Z,16.1
2018-04-26T17:53:28.277Z,16.1
2018-04-26T17:54:55.750Z,16.1
2018-04-26T17:56:15.568Z,16.1
2018-04-26T17:57:35.382Z,16.1
2018-04-26T17:58:55.231Z,16.1
2018-04-26T18:00:15.037Z,16.1
2018-04-26T18:01:34.842Z,16
2018-04-26T18:02:59.723Z,16.1
2018-04-26T18:04:19.558Z,16.1
2018-04-26T18:05:39.390Z,16.1
2018-04-26T18:06:59.203Z,16.1
2018-04-26T18:08:19.034Z,16.1
2018-04-26T18:09:38.991Z,16.1
2018-04-26T18:10:58.815Z,15.8
2018-04-26T18:12:23.685Z,16
2018-04-26T18:13:48.567Z,15.9
2018-04-26T18:15:08.372Z,15.9
2018-04-26T18:16:28.225Z,15.8
2018-04-26T18:17:55.677Z,15.7
2018-04-26T18:19:15.516Z,15.8
2018-04-26T18:20:35.325Z,15.6
2018-04-26T18:22:00.233Z,15.6